createdAt,value
2018-10-16T00:00:16.277Z,16.00
2018-10-16T00:02:46.361Z,15.13
2018-10-16T00:05:16.258Z,15.67
2018-10-16T00:07:45.685Z,15.73
2018-10-16T00:10:19.225Z,14.80
2018-10-16T00:12:48.472Z,15.90
2018-10-16T00:15:17.969Z,16.73
2018-10-16T00:17:47.549Z,15.40
2018-10-16T00:20:16.755Z,14.13
2018-10-16T00:22:46.070Z,16.80
2018-10-16T00:25:17.433Z,17.23
2018-10-16T00:27:46.712Z,17.23
2018-10-16T00:30:16.044Z,15.80
2018-10-16T00:32:45.449Z,17.67
2018-10-16T00:35:14.674Z,16.43
2018-10-16T00:37:43.712Z,16.33
2018-10-16T00:40:13.201Z,17.00
2018-10-16T00:42:42.525Z,14.93
2018-10-16T00:45:12.453Z,16.13
2018-10-16T00:47:41.909Z,16.73
2018-10-16T00:50:11.177Z,16.43
2018-10-16T00:52:40.656Z,15.00
2018-10-16T00:55:10.749Z,14.97
2018-10-16T00:57:40.836Z,14.73
2018-10-16T01:00:11.152Z,15.20
2018-10-16T01:02:40.700Z,14.23
2018-10-16T01:05:10.681Z,15.00
2018-10-16T01:07:40.507Z,14.70
2018-10-16T01:10:10.910Z,14.67
2018-10-16T01:12:40.740Z,14.23
2018-10-16T01:15:10.844Z,13.97
2018-10-16T01:17:40.740Z,13.53
2018-10-16T01:20:12.192Z,12.93
2018-10-16T01:22:41.991Z,12.67
2018-10-16T01:25:12.212Z,13.00
2018-10-16T01:27:41.595Z,12.87
2018-10-16T01:30:10.589Z,13.53
2018-10-16T01:32:39.973Z,13.23
2018-10-16T01:35:11.151Z,12.57
2018-10-16T01:37:40.654Z,12.83
2018-10-16T01:40:10.874Z,12.97
2018-10-16T01:42:40.195Z,12.87
2018-10-16T01:45:10.100Z,13.27
2018-10-16T01:47:39.673Z,12.77
2018-10-16T01:50:09.269Z,13.70
2018-10-16T01:52:38.650Z,13.77
2018-10-16T01:55:08.053Z,13.83
2018-10-16T01:57:37.600Z,14.07
2018-10-16T02:00:08.133Z,12.97
2018-10-16T02:02:37.627Z,13.63
2018-10-16T02:05:08.464Z,13.90
2018-10-16T02:07:37.987Z,13.13
2018-10-16T02:10:08.204Z,16.10
2018-10-16T02:12:37.883Z,14.30
2018-10-16T02:15:07.681Z,13.20
2018-10-16T02:17:37.436Z,14.07
2018-10-16T02:20:07.151Z,15.40
2018-10-16T02:22:36.329Z,16.13
2018-10-16T02:25:05.481Z,16.63
2018-10-16T02:27:34.995Z,15.73
2018-10-16T02:30:04.229Z,14.07
2018-10-16T02:32:33.582Z,14.50
2018-10-16T02:35:03.082Z,13.77
2018-10-16T02:37:32.540Z,14.90
2018-10-16T02:40:01.696Z,14.80
2018-10-16T02:42:31.403Z,14.63
2018-10-16T02:45:00.756Z,14.37
2018-10-16T02:47:29.797Z,13.57
2018-10-16T02:49:59.139Z,14.33
2018-10-16T02:52:28.297Z,13.10
2018-10-16T02:54:57.639Z,15.77
2018-10-16T02:57:26.893Z,17.07
2018-10-16T02:59:56.412Z,15.20
2018-10-16T03:02:25.809Z,16.23
2018-10-16T03:04:55.181Z,14.50
2018-10-16T03:07:24.397Z,15.77
2018-10-16T03:09:53.627Z,15.30
2018-10-16T03:12:22.871Z,15.10
2018-10-16T03:14:52.232Z,16.57
2018-10-16T03:17:21.399Z,17.10
2018-10-16T03:19:50.660Z,16.93
2018-10-16T03:22:20.049Z,16.80
2018-10-16T03:24:49.413Z,15.77
2018-10-16T03:27:18.927Z,16.50
2018-10-16T03:29:48.234Z,16.87
2018-10-16T03:32:17.582Z,15.60
2018-10-16T03:34:47.022Z,17.10
2018-10-16T03:37:16.256Z,18.03
2018-10-16T03:39:45.429Z,15.07
2018-10-16T03:42:14.927Z,16.50
2018-10-16T03:44:44.205Z,16.07
2018-10-16T03:47:13.572Z,15.97
2018-10-16T03:49:42.891Z,15.53
2018-10-16T03:52:12.389Z,15.03
2018-10-16T03:54:42.184Z,15.20
2018-10-16T03:57:11.418Z,15.60
2018-10-16T03:59:40.709Z,15.17
2018-10-16T04:02:10.016Z,15.97
2018-10-16T04:04:39.797Z,20.27
2018-10-16T04:07:09.137Z,26.17
2018-10-16T04:09:38.309Z,26.00
2018-10-16T04:12:07.584Z,30.03
2018-10-16T04:14:36.868Z,29.23
2018-10-16T04:17:05.873Z,31.23
2018-10-16T04:19:34.921Z,29.30
2018-10-16T04:22:04.296Z,28.60
2018-10-16T04:24:33.960Z,27.40
2018-10-16T04:27:05.239Z,28.57
2018-10-16T04:29:34.587Z,24.83
2018-10-16T04:32:04.292Z,25.17
2018-10-16T04:34:33.913Z,25.47
2018-10-16T04:37:03.141Z,25.37
2018-10-16T04:39:32.170Z,28.93
2018-10-16T04:42:01.521Z,27.70
2018-10-16T04:44:30.692Z,26.33
2018-10-16T04:47:00.084Z,27.73
2018-10-16T04:49:29.534Z,26.80
2018-10-16T04:51:59.054Z,24.73
2018-10-16T04:54:28.434Z,27.52
2018-10-16T04:56:57.701Z,24.87
2018-10-16T04:59:26.764Z,22.33
2018-10-16T05:01:56.670Z,20.03
2018-10-16T05:04:26.177Z,22.50
2018-10-16T05:06:55.689Z,22.37
2018-10-16T05:09:24.919Z,22.20
2018-10-16T05:11:55.116Z,25.07
2018-10-16T05:14:24.331Z,23.23
2018-10-16T05:16:53.923Z,23.63
2018-10-16T05:19:23.017Z,24.90
2018-10-16T05:21:52.303Z,32.23
2018-10-16T05:24:21.532Z,35.10
2018-10-16T05:26:51.040Z,36.77
2018-10-16T05:29:20.287Z,36.60
2018-10-16T05:31:49.856Z,35.83
2018-10-16T05:34:19.124Z,37.47
2018-10-16T05:36:48.384Z,43.03
2018-10-16T05:39:18.012Z,44.30
2018-10-16T05:41:47.230Z,47.43
2018-10-16T05:44:16.447Z,47.63
2018-10-16T05:46:45.574Z,47.87
2018-10-16T05:49:14.566Z,47.47
2018-10-16T05:51:43.670Z,48.97
2018-10-16T05:54:13.137Z,49.07
2018-10-16T05:56:42.604Z,49.63
2018-10-16T05:59:11.986Z,50.83
2018-10-16T06:01:41.256Z,54.07
2018-10-16T06:04:11.089Z,64.60
2018-10-16T06:06:40.730Z,64.67
2018-10-16T06:09:09.921Z,63.20
2018-10-16T06:11:39.221Z,77.40
2018-10-16T06:14:08.737Z,109.67
2018-10-16T06:16:38.445Z,102.23
2018-10-16T06:19:09.143Z,91.70
2018-10-16T06:21:38.415Z,81.53
2018-10-16T06:24:07.861Z,71.23
2018-10-16T06:26:37.485Z,67.67
2018-10-16T06:29:07.245Z,68.27
2018-10-16T06:31:36.788Z,67.10
2018-10-16T06:34:05.791Z,66.40
2018-10-16T06:36:35.165Z,66.87
2018-10-16T06:39:05.065Z,67.50
2018-10-16T06:41:34.302Z,67.00
2018-10-16T06:44:03.672Z,63.63
2018-10-16T06:46:32.969Z,56.60
2018-10-16T06:49:03.088Z,53.40
2018-10-16T06:51:32.600Z,57.40
2018-10-16T06:54:01.817Z,52.50
2018-10-16T06:56:31.474Z,47.40
2018-10-16T06:59:00.907Z,50.43
2018-10-16T07:01:30.137Z,54.80
2018-10-16T07:04:00.097Z,48.03
2018-10-16T07:06:29.809Z,52.30
2018-10-16T07:08:59.056Z,49.17
2018-10-16T07:11:28.403Z,44.83
2018-10-16T07:13:57.907Z,42.43
2018-10-16T07:16:27.432Z,41.73
2018-10-16T07:18:56.501Z,40.17
2018-10-16T07:21:26.038Z,36.03
2018-10-16T07:23:55.743Z,28.60
2018-10-16T07:26:24.814Z,21.27
2018-10-16T07:28:53.995Z,21.83
2018-10-16T07:31:23.333Z,18.47
2018-10-16T07:33:52.712Z,21.60
2018-10-16T07:36:22.184Z,21.60
2018-10-16T07:38:51.371Z,16.80
2018-10-16T07:41:20.558Z,20.43
2018-10-16T07:43:49.925Z,24.17
2018-10-16T07:46:19.140Z,15.90
2018-10-16T07:48:48.149Z,18.90
2018-10-16T07:51:17.643Z,19.63
2018-10-16T07:53:47.102Z,15.50
2018-10-16T07:56:16.426Z,19.80
2018-10-16T07:58:45.832Z,18.53
2018-10-16T08:01:15.218Z,19.63
2018-10-16T08:03:44.440Z,13.47
2018-10-16T08:06:13.836Z,22.70
2018-10-16T08:08:43.272Z,20.17
2018-10-16T08:11:13.114Z,16.53
2018-10-16T08:13:42.288Z,14.03
2018-10-16T08:16:11.525Z,13.57
2018-10-16T08:18:41.153Z,14.50
2018-10-16T08:21:10.405Z,10.30
2018-10-16T08:23:39.582Z,11.97
2018-10-16T08:26:08.793Z,11.70
2018-10-16T08:28:37.941Z,10.07
2018-10-16T08:31:07.196Z,11.57
2018-10-16T08:33:36.311Z,10.37
2018-10-16T08:36:05.894Z,9.93
2018-10-16T08:38:54.459Z,13.00
2018-10-16T08:41:28.467Z,12.07
2018-10-16T08:45:11.628Z,9.73
2018-10-16T08:47:51.736Z,10.67
2018-10-16T08:50:32.690Z,8.83
2018-10-16T08:53:02.284Z,9.73
2018-10-16T08:55:31.353Z,10.33
2018-10-16T08:58:01.134Z,10.83
2018-10-16T09:00:30.736Z,10.93
2018-10-16T09:02:59.977Z,10.17
2018-10-16T09:05:29.945Z,9.20
2018-10-16T09:07:59.344Z,9.07
2018-10-16T09:10:28.753Z,8.90
2018-10-16T09:12:57.875Z,9.07
2018-10-16T09:15:27.399Z,9.90
2018-10-16T09:17:56.512Z,8.90
2018-10-16T09:20:25.660Z,8.30
2018-10-16T09:22:55.012Z,9.07
2018-10-16T09:25:24.464Z,10.03
2018-10-16T09:27:53.859Z,12.10
2018-10-16T09:30:23.241Z,10.57
2018-10-16T09:32:52.853Z,10.60
2018-10-16T09:35:22.085Z,9.73
2018-10-16T09:37:51.411Z,7.28
2018-10-16T09:40:20.843Z,5.90
2018-10-16T09:42:50.001Z,5.17
2018-10-16T09:45:19.547Z,5.40
2018-10-16T09:47:49.461Z,5.72
2018-10-16T09:50:18.672Z,4.25
2018-10-16T09:52:49.045Z,3.50
2018-10-16T09:55:18.451Z,4.22
2018-10-16T09:57:47.634Z,7.75
2018-10-16T10:00:22.680Z,6.87
2018-10-16T10:02:52.038Z,10.48
2018-10-16T10:05:21.437Z,6.78
2018-10-16T10:07:51.003Z,5.12
2018-10-16T10:10:20.024Z,10.58
2018-10-16T10:12:49.510Z,6.10
2018-10-16T10:15:18.897Z,4.00
2018-10-16T10:17:48.107Z,4.47
2018-10-16T10:20:17.833Z,4.00
2018-10-16T10:22:47.349Z,3.60
2018-10-16T10:25:17.070Z,8.28
2018-10-16T10:27:46.734Z,5.92
2018-10-16T10:30:16.022Z,6.45
2018-10-16T10:32:45.352Z,29.77
2018-10-16T10:35:15.305Z,71.80
2018-10-16T10:37:44.982Z,73.45
2018-10-16T10:40:14.852Z,11.08
2018-10-16T10:42:44.449Z,7.67
2018-10-16T10:45:13.932Z,4.60
2018-10-16T10:47:43.492Z,4.92
2018-10-16T10:50:14.109Z,3.62
2018-10-16T10:52:43.467Z,4.22
2018-10-16T10:55:13.115Z,6.10
2018-10-16T10:57:42.543Z,4.83
2018-10-16T11:00:13.090Z,4.70
2018-10-16T11:02:44.156Z,6.60
2018-10-16T11:05:13.311Z,4.10
2018-10-16T11:07:43.060Z,3.55
2018-10-16T11:10:13.512Z,3.80
2018-10-16T11:12:43.945Z,3.30
2018-10-16T11:15:13.365Z,3.75
2018-10-16T11:17:42.604Z,3.70
2018-10-16T11:20:13.265Z,3.35
2018-10-16T11:22:42.727Z,3.33
2018-10-16T11:25:12.281Z,3.40
2018-10-16T11:27:42.328Z,3.40
2018-10-16T11:30:13.704Z,3.08
2018-10-16T11:32:43.058Z,3.52
2018-10-16T11:35:13.807Z,3.27
2018-10-16T11:37:43.228Z,3.40
2018-10-16T11:40:12.606Z,3.25
2018-10-16T11:42:42.572Z,3.10
2018-10-16T11:45:12.762Z,3.80
2018-10-16T11:47:42.120Z,3.55
2018-10-16T11:50:12.206Z,3.40
2018-10-16T11:52:41.764Z,2.90
2018-10-16T11:55:11.284Z,3.00
2018-10-16T11:57:40.566Z,2.83
2018-10-16T12:00:12.249Z,3.15
2018-10-16T12:02:41.780Z,3.45
2018-10-16T12:05:11.286Z,3.30
2018-10-16T12:07:40.728Z,2.95
2018-10-16T12:10:09.971Z,3.30
2018-10-16T12:12:39.492Z,2.83
2018-10-16T12:15:09.214Z,3.33
2018-10-16T12:19:45.547Z,2.95
2018-10-16T12:22:14.807Z,3.67
2018-10-16T12:24:44.122Z,3.50
2018-10-16T12:27:14.550Z,3.10
2018-10-16T12:29:44.191Z,3.42
2018-10-16T12:32:13.756Z,3.65
2018-10-16T12:34:43.418Z,3.40
2018-10-16T12:37:12.592Z,3.62
2018-10-16T12:39:41.892Z,3.60
2018-10-16T12:42:11.765Z,3.50
2018-10-16T12:44:40.937Z,3.37
2018-10-16T12:47:10.204Z,3.15
2018-10-16T12:49:39.405Z,3.65
2018-10-16T12:52:08.540Z,3.42
2018-10-16T12:54:37.708Z,3.85
2018-10-16T12:57:08.663Z,3.40
2018-10-16T12:59:37.828Z,3.40
2018-10-16T13:02:07.368Z,3.20
2018-10-16T13:04:36.938Z,3.58
2018-10-16T13:07:20.314Z,3.37
2018-10-16T13:09:49.824Z,3.55
2018-10-16T13:12:19.443Z,3.67
2018-10-16T13:14:49.353Z,3.67
2018-10-16T13:17:18.510Z,3.70
2018-10-16T13:19:47.808Z,3.40
2018-10-16T13:22:17.996Z,3.50
2018-10-16T13:24:47.204Z,3.70
2018-10-16T13:27:16.446Z,3.80
2018-10-16T13:29:46.042Z,3.98
2018-10-16T13:32:15.425Z,3.83
2018-10-16T13:34:44.700Z,4.05
2018-10-16T13:37:13.847Z,4.08
2018-10-16T13:39:43.244Z,4.00
2018-10-16T13:42:12.589Z,4.80
2018-10-16T13:44:41.818Z,5.42
2018-10-16T13:47:11.114Z,8.23
2018-10-16T13:49:40.376Z,15.28
2018-10-16T13:52:09.747Z,18.50
2018-10-16T13:54:39.181Z,22.42
2018-10-16T13:57:08.619Z,37.90
2018-10-16T13:59:38.360Z,32.83
2018-10-16T14:02:08.020Z,18.87
2018-10-16T14:04:37.078Z,6.97
2018-10-16T14:07:06.463Z,15.93
2018-10-16T14:09:35.749Z,17.07
2018-10-16T14:12:05.334Z,20.15
2018-10-16T14:14:34.850Z,15.03
2018-10-16T14:17:04.395Z,16.30
2018-10-16T14:19:34.053Z,15.40
2018-10-16T14:22:03.593Z,15.93
2018-10-16T14:24:33.470Z,14.53
2018-10-16T14:27:03.167Z,12.23
2018-10-16T14:29:32.650Z,12.93
2018-10-16T14:32:02.849Z,12.05
2018-10-16T14:34:32.281Z,10.63
2018-10-16T14:37:01.525Z,13.60
2018-10-16T14:39:37.549Z,9.85
2018-10-16T14:42:06.735Z,7.25
2018-10-16T14:44:36.158Z,8.33
2018-10-16T14:47:05.650Z,8.15
2018-10-16T14:49:34.987Z,7.58
2018-10-16T14:52:04.303Z,8.55
2018-10-16T14:54:33.477Z,10.13
2018-10-16T14:57:02.946Z,8.53
2018-10-16T14:59:32.198Z,10.70
2018-10-16T15:02:02.052Z,12.33
2018-10-16T15:04:31.462Z,16.67
2018-10-16T15:07:00.767Z,14.93
2018-10-16T15:09:30.354Z,10.17
2018-10-16T15:11:59.573Z,11.63
2018-10-16T15:14:28.958Z,13.90
2018-10-16T15:16:58.461Z,12.20
2018-10-16T15:19:27.838Z,11.23
2018-10-16T15:21:57.081Z,10.93
2018-10-16T15:24:26.492Z,12.70
2018-10-16T15:26:55.701Z,10.60
2018-10-16T15:29:25.717Z,9.43
2018-10-16T15:31:54.909Z,12.70
2018-10-16T15:34:24.731Z,19.80
2018-10-16T15:36:53.949Z,16.37
2018-10-16T15:39:23.457Z,18.63
2018-10-16T15:41:52.580Z,19.67
2018-10-16T15:44:23.201Z,22.57
2018-10-16T15:46:52.923Z,24.43
2018-10-16T15:49:22.306Z,33.13
2018-10-16T15:51:51.815Z,27.17
2018-10-16T15:54:21.184Z,25.87
2018-10-16T15:56:53.505Z,23.90
2018-10-16T15:59:23.095Z,23.00
2018-10-16T16:01:53.538Z,20.23
2018-10-16T16:04:22.774Z,26.43
2018-10-16T16:06:51.941Z,31.07
2018-10-16T16:09:21.214Z,32.57
2018-10-16T16:11:50.374Z,31.47
2018-10-16T16:14:19.816Z,34.50
2018-10-16T16:16:48.911Z,35.80
2018-10-16T16:19:18.493Z,47.23
2018-10-16T16:21:47.979Z,57.00
2018-10-16T16:24:17.279Z,96.67
2018-10-16T16:26:46.929Z,101.30
2018-10-16T16:29:16.576Z,78.50
2018-10-16T16:31:46.255Z,73.27
2018-10-16T16:34:15.799Z,76.07
2018-10-16T16:36:45.312Z,79.93
2018-10-16T16:39:15.097Z,80.10
2018-10-16T16:41:44.615Z,78.57
2018-10-16T16:44:13.755Z,86.43
2018-10-16T16:46:43.058Z,79.93
2018-10-16T16:49:12.696Z,70.30
2018-10-16T16:51:42.653Z,90.90
2018-10-16T16:54:19.264Z,70.80
2018-10-16T16:56:48.612Z,80.57
2018-10-16T16:59:17.997Z,70.77
2018-10-16T17:01:47.289Z,65.03
2018-10-16T17:04:17.397Z,92.17
2018-10-16T17:06:46.710Z,71.37
2018-10-16T17:09:15.970Z,80.67
2018-10-16T17:11:45.830Z,69.50
2018-10-16T17:14:15.123Z,89.13
2018-10-16T17:16:45.069Z,85.67
2018-10-16T17:19:14.481Z,74.40
2018-10-16T17:21:47.673Z,91.13
2018-10-16T17:24:17.236Z,91.10
2018-10-16T17:26:46.381Z,101.13
2018-10-16T17:29:15.574Z,87.80
2018-10-16T17:31:45.157Z,93.47
2018-10-16T17:34:14.539Z,104.83
2018-10-16T17:36:44.013Z,101.53
2018-10-16T17:39:13.629Z,101.63
2018-10-16T17:41:43.520Z,97.73
2018-10-16T17:44:13.220Z,97.43
2018-10-16T17:46:42.398Z,101.03
2018-10-16T17:49:12.090Z,96.57
2018-10-16T17:51:41.484Z,118.07
2018-10-16T17:54:11.200Z,72.07
2018-10-16T17:56:40.639Z,90.40
2018-10-16T17:59:10.589Z,80.10
2018-10-16T18:01:40.341Z,90.20
2018-10-16T18:04:09.915Z,127.50
2018-10-16T18:06:43.649Z,119.57
2018-10-16T18:09:13.107Z,64.93
2018-10-16T18:11:42.129Z,109.07
2018-10-16T18:14:11.791Z,60.87
2018-10-16T18:16:41.308Z,62.77
2018-10-16T18:19:10.997Z,51.97
2018-10-16T18:21:40.768Z,57.43
2018-10-16T18:24:10.931Z,60.87
2018-10-16T18:26:42.132Z,61.17
2018-10-16T18:29:11.474Z,58.73
2018-10-16T18:31:40.891Z,75.70
2018-10-16T18:34:10.311Z,64.17
2018-10-16T18:36:41.668Z,65.43
2018-10-16T18:39:11.584Z,57.93
2018-10-16T18:41:41.037Z,55.47
2018-10-16T18:44:11.284Z,55.63
2018-10-16T18:46:42.431Z,59.73
2018-10-16T18:49:11.871Z,60.83
2018-10-16T18:51:41.581Z,43.13
2018-10-16T18:54:10.991Z,57.57
2018-10-16T18:56:40.737Z,61.70
2018-10-16T18:59:10.607Z,59.20
2018-10-16T19:01:40.385Z,57.97
2018-10-16T19:04:10.281Z,72.70
2018-10-16T19:06:40.771Z,33.43
2018-10-16T19:09:11.979Z,28.93
2018-10-16T19:11:41.612Z,41.53
2018-10-16T19:14:10.931Z,45.50
2018-10-16T19:16:40.513Z,43.17
2018-10-16T19:19:09.753Z,43.77
2018-10-16T19:21:39.122Z,44.63
2018-10-16T19:24:08.671Z,41.40
2018-10-16T19:26:39.402Z,47.00
2018-10-16T19:29:08.840Z,55.37
2018-10-16T19:31:38.480Z,50.70
2018-10-16T19:34:07.890Z,49.17
2018-10-16T19:36:37.457Z,48.10
2018-10-16T19:39:09.293Z,41.83
2018-10-16T19:41:38.584Z,40.30
2018-10-16T19:44:07.985Z,41.53
2018-10-16T19:46:37.309Z,38.60
2018-10-16T19:49:06.666Z,45.13
2018-10-16T19:51:36.873Z,43.17
2018-10-16T19:54:06.180Z,36.50
2018-10-16T19:56:35.609Z,36.40
2018-10-16T19:59:04.991Z,38.20
2018-10-16T20:01:34.397Z,37.40
2018-10-16T20:04:03.566Z,35.43
2018-10-16T20:06:32.961Z,34.20
2018-10-16T20:09:02.244Z,34.63
2018-10-16T20:11:31.655Z,36.83
2018-10-16T20:14:01.288Z,37.30
2018-10-16T20:16:30.736Z,46.20
2018-10-16T20:19:00.208Z,40.70
2018-10-16T20:21:29.381Z,38.23
2018-10-16T20:23:58.640Z,40.03
2018-10-16T20:26:28.185Z,34.90
2018-10-16T20:28:57.478Z,37.00
2018-10-16T20:31:27.281Z,33.73
2018-10-16T20:33:56.901Z,33.23
2018-10-16T20:36:26.510Z,38.23
2018-10-16T20:38:55.847Z,39.37
2018-10-16T20:41:25.334Z,36.20
2018-10-16T20:43:54.801Z,38.00
2018-10-16T20:46:24.219Z,37.63
2018-10-16T20:48:53.831Z,37.90
2018-10-16T20:51:23.482Z,37.30
2018-10-16T20:53:52.542Z,37.27
2018-10-16T20:56:22.034Z,36.43
2018-10-16T20:58:52.274Z,37.47
2018-10-16T21:01:21.933Z,38.20
2018-10-16T21:03:51.572Z,37.67
2018-10-16T21:06:21.051Z,37.47
2018-10-16T21:08:49.940Z,38.43
2018-10-16T21:11:19.281Z,35.57
2018-10-16T21:13:48.406Z,37.13
2018-10-16T21:16:18.026Z,37.13
2018-10-16T21:18:47.801Z,33.93
2018-10-16T21:21:16.939Z,34.37
2018-10-16T21:23:46.222Z,41.17
2018-10-16T21:26:15.652Z,39.17
2018-10-16T21:28:45.093Z,39.93
2018-10-16T21:31:14.516Z,38.13
2018-10-16T21:33:43.978Z,40.60
2018-10-16T21:36:13.449Z,38.33
2018-10-16T21:38:42.599Z,41.20
2018-10-16T21:41:11.911Z,41.50
2018-10-16T21:43:40.934Z,42.70
2018-10-16T21:46:10.335Z,43.10
2018-10-16T21:48:39.943Z,44.40
2018-10-16T21:51:09.046Z,45.53
2018-10-16T21:53:38.266Z,44.97
2018-10-16T21:56:07.807Z,46.77
2018-10-16T21:58:37.152Z,46.63
2018-10-16T22:01:11.608Z,46.07
2018-10-16T22:03:41.150Z,47.63
2018-10-16T22:06:10.312Z,44.43
2018-10-16T22:08:39.506Z,47.30
2018-10-16T22:11:09.117Z,49.27
2018-10-16T22:13:38.469Z,44.00
2018-10-16T22:16:07.979Z,44.50
2018-10-16T22:18:37.269Z,41.83
2018-10-16T22:21:06.236Z,39.87
2018-10-16T22:23:35.792Z,39.73
2018-10-16T22:26:05.169Z,38.40
2018-10-16T22:28:34.520Z,36.40
2018-10-16T22:31:03.882Z,34.73
2018-10-16T22:33:33.128Z,34.57
2018-10-16T22:36:02.510Z,31.33
2018-10-16T22:38:32.128Z,33.33
2018-10-16T22:41:01.417Z,34.83
2018-10-16T22:43:30.752Z,35.53
2018-10-16T22:46:00.304Z,35.03
2018-10-16T22:48:29.461Z,34.67
2018-10-16T22:50:59.190Z,31.47
2018-10-16T22:53:28.558Z,32.63
2018-10-16T22:55:57.776Z,28.90
2018-10-16T22:58:27.223Z,27.37
2018-10-16T23:00:56.755Z,26.70
2018-10-16T23:03:26.007Z,23.70
2018-10-16T23:05:55.421Z,22.20
2018-10-16T23:08:24.760Z,33.70
2018-10-16T23:10:53.821Z,31.87
2018-10-16T23:13:22.928Z,31.57
2018-10-16T23:15:52.198Z,33.23
2018-10-16T23:18:21.518Z,32.33
2018-10-16T23:20:50.709Z,30.33
2018-10-16T23:23:19.838Z,30.53
2018-10-16T23:25:49.031Z,31.73
2018-10-16T23:28:18.393Z,28.83
2018-10-16T23:30:47.448Z,29.47
2018-10-16T23:33:16.936Z,28.63
2018-10-16T23:35:46.478Z,26.97
2018-10-16T23:38:15.908Z,28.10
2018-10-16T23:40:45.508Z,26.40
2018-10-16T23:43:14.927Z,26.37
2018-10-16T23:45:44.225Z,23.93
2018-10-16T23:48:13.406Z,23.90
2018-10-16T23:50:42.572Z,25.37
2018-10-16T23:53:12.202Z,25.57
2018-10-16T23:55:41.513Z,24.57
2018-10-16T23:58:10.805Z,24.33
